sensor_id;sensor_type;location;lat;lon;timestamp;P1;durP1;ratioP1;P2;durP2;ratioP2
17727;SDS011;8984;49.268;12.302;2023-02-10T00:00:46;34.60;;;21.37;;
17727;SDS011;8984;49.268;12.302;2023-02-10T00:03:13;30.47;;;19.10;;
17727;SDS011;8984;49.268;12.302;2023-02-10T00:05:40;31.47;;;19.00;;
17727;SDS011;8984;49.268;12.302;2023-02-10T00:08:07;35.43;;;20.23;;
17727;SDS011;8984;49.268;12.302;2023-02-10T00:10:35;30.60;;;18.53;;
17727;SDS011;8984;49.268;12.302;2023-02-10T00:13:02;28.53;;;18.33;;
17727;SDS011;8984;49.268;12.302;2023-02-10T00:15:28;32.10;;;20.63;;
17727;SDS011;8984;49.268;12.302;2023-02-10T00:17:55;40.30;;;23.60;;
17727;SDS011;8984;49.268;12.302;2023-02-10T00:20:22;29.13;;;19.13;;
17727;SDS011;8984;49.268;12.302;2023-02-10T00:22:49;45.63;;;26.27;;
17727;SDS011;8984;49.268;12.302;2023-02-10T00:25:16;50.77;;;28.60;;
17727;SDS011;8984;49.268;12.302;2023-02-10T00:27:44;28.70;;;18.53;;
17727;SDS011;8984;49.268;12.302;2023-02-10T00:30:11;25.67;;;16.70;;
17727;SDS011;8984;49.268;12.302;2023-02-10T00:32:39;25.10;;;16.87;;
17727;SDS011;8984;49.268;12.302;2023-02-10T00:35:06;29.90;;;18.37;;
17727;SDS011;8984;49.268;12.302;2023-02-10T00:37:33;28.17;;;17.43;;
17727;SDS011;8984;49.268;12.302;2023-02-10T00:40:00;26.30;;;17.90;;
17727;SDS011;8984;49.268;12.302;2023-02-10T00:42:27;29.70;;;18.40;;
17727;SDS011;8984;49.268;12.302;2023-02-10T00:44:55;63.10;;;31.97;;
17727;SDS011;8984;49.268;12.302;2023-02-10T00:47:22;51.50;;;27.40;;
17727;SDS011;8984;49.268;12.302;2023-02-10T00:49:51;44.80;;;24.57;;
17727;SDS011;8984;49.268;12.302;2023-02-10T00:52:17;42.47;;;24.73;;
17727;SDS011;8984;49.268;12.302;2023-02-10T00:54:44;37.90;;;22.40;;
17727;SDS011;8984;49.268;12.302;2023-02-10T00:57:11;32.53;;;20.70;;
17727;SDS011;8984;49.268;12.302;2023-02-10T00:59:38;31.10;;;20.10;;
17727;SDS011;8984;49.268;12.302;2023-02-10T01:02:06;32.90;;;20.17;;
17727;SDS011;8984;49.268;12.302;2023-02-10T01:04:33;27.43;;;16.67;;
17727;SDS011;8984;49.268;12.302;2023-02-10T01:07:00;33.73;;;19.60;;
17727;SDS011;8984;49.268;12.302;2023-02-10T01:09:27;36.07;;;21.10;;
17727;SDS011;8984;49.268;12.302;2023-02-10T01:11:54;33.43;;;19.97;;
17727;SDS011;8984;49.268;12.302;2023-02-10T01:14:21;29.97;;;17.50;;
17727;SDS011;8984;49.268;12.302;2023-02-10T01:16:48;27.90;;;17.97;;
17727;SDS011;8984;49.268;12.302;2023-02-10T01:19:16;23.77;;;15.20;;
17727;SDS011;8984;49.268;12.302;2023-02-10T01:21:43;25.60;;;16.60;;
17727;SDS011;8984;49.268;12.302;2023-02-10T01:24:10;24.93;;;17.33;;
17727;SDS011;8984;49.268;12.302;2023-02-10T01:26:36;26.30;;;16.87;;
17727;SDS011;8984;49.268;12.302;2023-02-10T01:29:03;24.43;;;15.77;;
17727;SDS011;8984;49.268;12.302;2023-02-10T01:31:30;28.30;;;17.83;;
17727;SDS011;8984;49.268;12.302;2023-02-10T01:33:57;28.43;;;17.13;;
17727;SDS011;8984;49.268;12.302;2023-02-10T01:36:26;25.87;;;17.53;;
17727;SDS011;8984;49.268;12.302;2023-02-10T01:38:53;27.87;;;17.17;;
17727;SDS011;8984;49.268;12.302;2023-02-10T01:41:21;28.03;;;17.83;;
17727;SDS011;8984;49.268;12.302;2023-02-10T01:43:53;27.93;;;18.43;;
17727;SDS011;8984;49.268;12.302;2023-02-10T01:46:22;27.50;;;17.53;;
17727;SDS011;8984;49.268;12.302;2023-02-10T01:48:49;25.47;;;16.60;;
17727;SDS011;8984;49.268;12.302;2023-02-10T01:51:17;26.30;;;16.43;;
17727;SDS011;8984;49.268;12.302;2023-02-10T01:53:49;25.83;;;17.00;;
17727;SDS011;8984;49.268;12.302;2023-02-10T01:56:18;29.23;;;18.13;;
17727;SDS011;8984;49.268;12.302;2023-02-10T01:58:45;28.67;;;18.53;;
17727;SDS011;8984;49.268;12.302;2023-02-10T02:01:12;29.30;;;17.33;;
17727;SDS011;8984;49.268;12.302;2023-02-10T02:03:38;25.27;;;16.93;;
17727;SDS011;8984;49.268;12.302;2023-02-10T02:06:06;28.90;;;17.40;;
17727;SDS011;8984;49.268;12.302;2023-02-10T02:08:33;26.43;;;16.87;;
17727;SDS011;8984;49.268;12.302;2023-02-10T02:11:04;30.50;;;18.90;;
17727;SDS011;8984;49.268;12.302;2023-02-10T02:13:47;29.67;;;18.40;;
17727;SDS011;8984;49.268;12.302;2023-02-10T02:16:27;27.43;;;18.93;;
17727;SDS011;8984;49.268;12.302;2023-02-10T02:19:07;27.83;;;18.47;;
17727;SDS011;8984;49.268;12.302;2023-02-10T02:22:04;27.87;;;18.03;;
17727;SDS011;8984;49.268;12.302;2023-02-10T02:24:50;27.47;;;18.10;;
17727;SDS011;8984;49.268;12.302;2023-02-10T02:27:41;25.20;;;16.23;;
17727;SDS011;8984;49.268;12.302;2023-02-10T02:33:52;23.87;;;16.13;;
17727;SDS011;8984;49.268;12.302;2023-02-10T02:36:25;25.60;;;16.80;;
17727;SDS011;8984;49.268;12.302;2023-02-10T02:38:58;31.07;;;17.17;;
17727;SDS011;8984;49.268;12.302;2023-02-10T02:41:28;27.43;;;16.83;;
17727;SDS011;8984;49.268;12.302;2023-02-10T02:43:55;28.70;;;17.60;;
17727;SDS011;8984;49.268;12.302;2023-02-10T02:46:28;29.33;;;18.20;;
17727;SDS011;8984;49.268;12.302;2023-02-10T02:49:03;29.90;;;18.10;;
17727;SDS011;8984;49.268;12.302;2023-02-10T02:51:39;32.90;;;18.07;;
17727;SDS011;8984;49.268;12.302;2023-02-10T02:54:15;25.63;;;17.57;;
17727;SDS011;8984;49.268;12.302;2023-02-10T02:56:50;28.60;;;18.10;;
17727;SDS011;8984;49.268;12.302;2023-02-10T02:59:25;25.93;;;16.37;;
17727;SDS011;8984;49.268;12.302;2023-02-10T03:02:00;26.70;;;16.63;;
17727;SDS011;8984;49.268;12.302;2023-02-10T03:04:31;26.77;;;17.07;;
17727;SDS011;8984;49.268;12.302;2023-02-10T03:07:00;30.50;;;17.33;;
17727;SDS011;8984;49.268;12.302;2023-02-10T03:09:27;28.67;;;18.57;;
17727;SDS011;8984;49.268;12.302;2023-02-10T03:11:54;24.77;;;16.80;;
17727;SDS011;8984;49.268;12.302;2023-02-10T03:14:20;25.90;;;17.93;;
17727;SDS011;8984;49.268;12.302;2023-02-10T03:16:47;26.27;;;16.70;;
17727;SDS011;8984;49.268;12.302;2023-02-10T03:19:16;26.17;;;16.93;;
17727;SDS011;8984;49.268;12.302;2023-02-10T03:21:42;28.80;;;18.40;;
17727;SDS011;8984;49.268;12.302;2023-02-10T03:24:10;24.13;;;17.00;;
17727;SDS011;8984;49.268;12.302;2023-02-10T03:26:37;23.23;;;15.97;;
17727;SDS011;8984;49.268;12.302;2023-02-10T03:29:04;26.07;;;16.53;;
17727;SDS011;8984;49.268;12.302;2023-02-10T03:31:32;27.20;;;17.00;;
17727;SDS011;8984;49.268;12.302;2023-02-10T03:34:16;24.87;;;16.90;;
17727;SDS011;8984;49.268;12.302;2023-02-10T03:36:47;29.43;;;17.70;;
17727;SDS011;8984;49.268;12.302;2023-02-10T03:39:21;27.07;;;17.43;;
17727;SDS011;8984;49.268;12.302;2023-02-10T03:41:50;30.47;;;17.83;;
17727;SDS011;8984;49.268;12.302;2023-02-10T03:44:23;25.57;;;17.47;;
17727;SDS011;8984;49.268;12.302;2023-02-10T03:46:51;27.40;;;16.50;;
17727;SDS011;8984;49.268;12.302;2023-02-10T03:49:26;28.63;;;17.80;;
17727;SDS011;8984;49.268;12.302;2023-02-10T03:51:55;27.93;;;17.80;;
17727;SDS011;8984;49.268;12.302;2023-02-10T03:54:22;31.07;;;19.27;;
17727;SDS011;8984;49.268;12.302;2023-02-10T03:56:53;27.43;;;17.87;;
17727;SDS011;8984;49.268;12.302;2023-02-10T03:59:20;27.93;;;18.27;;
17727;SDS011;8984;49.268;12.302;2023-02-10T04:01:47;29.33;;;18.67;;
17727;SDS011;8984;49.268;12.302;2023-02-10T04:04:17;34.00;;;22.23;;
17727;SDS011;8984;49.268;12.302;2023-02-10T04:06:49;29.13;;;19.70;;
17727;SDS011;8984;49.268;12.302;2023-02-10T04:09:21;30.67;;;19.80;;
17727;SDS011;8984;49.268;12.302;2023-02-10T04:11:54;29.90;;;18.70;;
17727;SDS011;8984;49.268;12.302;2023-02-10T04:14:28;28.77;;;19.40;;
17727;SDS011;8984;49.268;12.302;2023-02-10T04:17:05;30.27;;;19.03;;
17727;SDS011;8984;49.268;12.302;2023-02-10T04:19:33;28.30;;;17.97;;
17727;SDS011;8984;49.268;12.302;2023-02-10T04:22:14;32.00;;;20.13;;
17727;SDS011;8984;49.268;12.302;2023-02-10T04:24:46;30.33;;;19.67;;
17727;SDS011;8984;49.268;12.302;2023-02-10T04:27:16;32.90;;;19.60;;
17727;SDS011;8984;49.268;12.302;2023-02-10T04:29:54;25.57;;;17.93;;
17727;SDS011;8984;49.268;12.302;2023-02-10T04:32:27;29.27;;;18.60;;
17727;SDS011;8984;49.268;12.302;2023-02-10T04:34:55;35.27;;;21.33;;
17727;SDS011;8984;49.268;12.302;2023-02-10T04:37:25;31.40;;;19.73;;
17727;SDS011;8984;49.268;12.302;2023-02-10T04:39:54;29.00;;;18.23;;
17727;SDS011;8984;49.268;12.302;2023-02-10T04:42:27;32.40;;;20.60;;
17727;SDS011;8984;49.268;12.302;2023-02-10T04:44:56;29.37;;;19.00;;
17727;SDS011;8984;49.268;12.302;2023-02-10T04:47:27;30.03;;;19.83;;
17727;SDS011;8984;49.268;12.302;2023-02-10T04:50:09;27.00;;;18.57;;
17727;SDS011;8984;49.268;12.302;2023-02-10T04:52:42;31.60;;;20.30;;
17727;SDS011;8984;49.268;12.302;2023-02-10T04:55:10;30.73;;;19.17;;
17727;SDS011;8984;49.268;12.302;2023-02-10T04:57:51;30.43;;;19.93;;
17727;SDS011;8984;49.268;12.302;2023-02-10T05:00:19;32.50;;;20.47;;
17727;SDS011;8984;49.268;12.302;2023-02-10T05:02:51;30.57;;;19.23;;
17727;SDS011;8984;49.268;12.302;2023-02-10T05:05:33;28.33;;;17.43;;
17727;SDS011;8984;49.268;12.302;2023-02-10T05:08:09;27.57;;;18.47;;
17727;SDS011;8984;49.268;12.302;2023-02-10T05:11:01;26.47;;;17.60;;
17727;SDS011;8984;49.268;12.302;2023-02-10T05:13:29;30.23;;;18.87;;
17727;SDS011;8984;49.268;12.302;2023-02-10T05:16:03;75.83;;;37.97;;
17727;SDS011;8984;49.268;12.302;2023-02-10T05:18:35;65.47;;;31.93;;
17727;SDS011;8984;49.268;12.302;2023-02-10T05:21:09;33.63;;;20.80;;
17727;SDS011;8984;49.268;12.302;2023-02-10T05:23:44;32.03;;;19.73;;
17727;SDS011;8984;49.268;12.302;2023-02-10T05:26:14;31.27;;;20.33;;
17727;SDS011;8984;49.268;12.302;2023-02-10T05:28:43;34.70;;;20.70;;
17727;SDS011;8984;49.268;12.302;2023-02-10T05:31:17;34.27;;;19.30;;
17727;SDS011;8984;49.268;12.302;2023-02-10T05:33:54;32.87;;;20.03;;
17727;SDS011;8984;49.268;12.302;2023-02-10T05:36:23;30.43;;;18.13;;
17727;SDS011;8984;49.268;12.302;2023-02-10T05:39:01;30.50;;;19.60;;
17727;SDS011;8984;49.268;12.302;2023-02-10T05:41:50;31.93;;;19.37;;
17727;SDS011;8984;49.268;12.302;2023-02-10T05:44:26;37.67;;;23.40;;
17727;SDS011;8984;49.268;12.302;2023-02-10T05:46:59;30.97;;;19.73;;
17727;SDS011;8984;49.268;12.302;2023-02-10T05:49:28;38.30;;;22.70;;
17727;SDS011;8984;49.268;12.302;2023-02-10T05:51:58;66.37;;;35.87;;
17727;SDS011;8984;49.268;12.302;2023-02-10T05:54:52;33.97;;;20.83;;
17727;SDS011;8984;49.268;12.302;2023-02-10T05:57:26;37.03;;;22.27;;
17727;SDS011;8984;49.268;12.302;2023-02-10T06:00:14;36.03;;;23.23;;
17727;SDS011;8984;49.268;12.302;2023-02-10T06:02:44;44.13;;;24.37;;
17727;SDS011;8984;49.268;12.302;2023-02-10T06:05:23;40.63;;;25.70;;
17727;SDS011;8984;49.268;12.302;2023-02-10T06:07:52;38.70;;;26.23;;
17727;SDS011;8984;49.268;12.302;2023-02-10T06:10:24;42.10;;;24.50;;
17727;SDS011;8984;49.268;12.302;2023-02-10T06:12:55;35.33;;;22.33;;
17727;SDS011;8984;49.268;12.302;2023-02-10T06:15:23;35.53;;;22.67;;
17727;SDS011;8984;49.268;12.302;2023-02-10T06:18:08;37.50;;;23.73;;
17727;SDS011;8984;49.268;12.302;2023-02-10T06:20:37;39.07;;;23.63;;
17727;SDS011;8984;49.268;12.302;2023-02-10T06:23:06;46.20;;;24.53;;
17727;SDS011;8984;49.268;12.302;2023-02-10T06:25:47;37.10;;;22.47;;
17727;SDS011;8984;49.268;12.302;2023-02-10T06:28:21;40.13;;;23.13;;
17727;SDS011;8984;49.268;12.302;2023-02-10T06:31:04;41.67;;;23.07;;
17727;SDS011;8984;49.268;12.302;2023-02-10T06:33:35;46.53;;;26.70;;
17727;SDS011;8984;49.268;12.302;2023-02-10T06:36:06;51.60;;;28.73;;
17727;SDS011;8984;49.268;12.302;2023-02-10T06:38:37;44.77;;;26.27;;
17727;SDS011;8984;49.268;12.302;2023-02-10T06:41:08;45.83;;;27.07;;
17727;SDS011;8984;49.268;12.302;2023-02-10T06:43:43;51.83;;;29.67;;
17727;SDS011;8984;49.268;12.302;2023-02-10T06:46:12;38.87;;;26.50;;
17727;SDS011;8984;49.268;12.302;2023-02-10T06:48:43;44.07;;;27.23;;
17727;SDS011;8984;49.268;12.302;2023-02-10T06:51:18;44.23;;;26.20;;
17727;SDS011;8984;49.268;12.302;2023-02-10T06:53:53;41.87;;;25.10;;
17727;SDS011;8984;49.268;12.302;2023-02-10T06:56:25;40.00;;;26.07;;
17727;SDS011;8984;49.268;12.302;2023-02-10T06:58:56;44.90;;;27.40;;
17727;SDS011;8984;49.268;12.302;2023-02-10T07:01:42;47.37;;;29.27;;
17727;SDS011;8984;49.268;12.302;2023-02-10T07:04:21;49.93;;;29.03;;
17727;SDS011;8984;49.268;12.302;2023-02-10T07:06:51;42.33;;;27.50;;
17727;SDS011;8984;49.268;12.302;2023-02-10T07:09:45;41.37;;;25.97;;
17727;SDS011;8984;49.268;12.302;2023-02-10T07:12:26;43.77;;;25.67;;
17727;SDS011;8984;49.268;12.302;2023-02-10T07:17:48;53.30;;;29.97;;
17727;SDS011;8984;49.268;12.302;2023-02-10T07:20:28;54.60;;;30.67;;
17727;SDS011;8984;49.268;12.302;2023-02-10T07:23:04;49.97;;;27.97;;
17727;SDS011;8984;49.268;12.302;2023-02-10T07:25:46;52.73;;;30.03;;
17727;SDS011;8984;49.268;12.302;2023-02-10T07:28:18;44.23;;;27.60;;
17727;SDS011;8984;49.268;12.302;2023-02-10T07:30:49;48.37;;;27.93;;
17727;SDS011;8984;49.268;12.302;2023-02-10T07:33:18;46.80;;;26.87;;
17727;SDS011;8984;49.268;12.302;2023-02-10T07:35:48;50.93;;;28.17;;
17727;SDS011;8984;49.268;12.302;2023-02-10T07:38:20;50.43;;;30.10;;
17727;SDS011;8984;49.268;12.302;2023-02-10T07:40:54;47.97;;;27.80;;
17727;SDS011;8984;49.268;12.302;2023-02-10T07:43:30;80.43;;;39.80;;
17727;SDS011;8984;49.268;12.302;2023-02-10T07:46:08;57.10;;;33.00;;
17727;SDS011;8984;49.268;12.302;2023-02-10T07:48:40;52.77;;;30.33;;
17727;SDS011;8984;49.268;12.302;2023-02-10T07:51:13;51.63;;;31.87;;
17727;SDS011;8984;49.268;12.302;2023-02-10T07:53:43;69.93;;;39.60;;
17727;SDS011;8984;49.268;12.302;2023-02-10T07:56:15;58.50;;;33.60;;
17727;SDS011;8984;49.268;12.302;2023-02-10T07:58:47;54.73;;;31.67;;
17727;SDS011;8984;49.268;12.302;2023-02-10T08:01:15;73.23;;;35.60;;
17727;SDS011;8984;49.268;12.302;2023-02-10T08:03:53;58.53;;;32.73;;
17727;SDS011;8984;49.268;12.302;2023-02-10T08:06:24;63.83;;;35.83;;
17727;SDS011;8984;49.268;12.302;2023-02-10T08:09:06;53.20;;;31.80;;
17727;SDS011;8984;49.268;12.302;2023-02-10T08:11:35;66.53;;;35.93;;
17727;SDS011;8984;49.268;12.302;2023-02-10T08:14:14;54.30;;;31.10;;
17727;SDS011;8984;49.268;12.302;2023-02-10T08:16:42;51.23;;;31.13;;
17727;SDS011;8984;49.268;12.302;2023-02-10T08:19:15;61.57;;;33.23;;
17727;SDS011;8984;49.268;12.302;2023-02-10T08:21:56;63.10;;;34.80;;
17727;SDS011;8984;49.268;12.302;2023-02-10T08:24:37;67.13;;;37.37;;
17727;SDS011;8984;49.268;12.302;2023-02-10T08:27:04;65.90;;;37.57;;
17727;SDS011;8984;49.268;12.302;2023-02-10T08:29:32;76.47;;;40.20;;
17727;SDS011;8984;49.268;12.302;2023-02-10T08:31:59;80.53;;;42.77;;
17727;SDS011;8984;49.268;12.302;2023-02-10T08:34:26;76.77;;;41.17;;
17727;SDS011;8984;49.268;12.302;2023-02-10T08:36:53;77.60;;;42.43;;
17727;SDS011;8984;49.268;12.302;2023-02-10T08:39:20;90.70;;;45.30;;
17727;SDS011;8984;49.268;12.302;2023-02-10T08:41:47;104.33;;;56.93;;
17727;SDS011;8984;49.268;12.302;2023-02-10T08:44:14;107.87;;;53.27;;
17727;SDS011;8984;49.268;12.302;2023-02-10T08:46:42;89.90;;;48.57;;
17727;SDS011;8984;49.268;12.302;2023-02-10T08:49:09;91.93;;;49.87;;
17727;SDS011;8984;49.268;12.302;2023-02-10T08:51:36;84.53;;;45.53;;
17727;SDS011;8984;49.268;12.302;2023-02-10T08:54:05;89.83;;;44.00;;
17727;SDS011;8984;49.268;12.302;2023-02-10T08:56:32;77.00;;;43.20;;
17727;SDS011;8984;49.268;12.302;2023-02-10T08:58:59;84.53;;;47.27;;
17727;SDS011;8984;49.268;12.302;2023-02-10T09:01:32;76.30;;;43.83;;
17727;SDS011;8984;49.268;12.302;2023-02-10T09:04:21;82.87;;;44.97;;
17727;SDS011;8984;49.268;12.302;2023-02-10T09:06:48;64.90;;;38.90;;
17727;SDS011;8984;49.268;12.302;2023-02-10T09:09:16;59.47;;;35.03;;
17727;SDS011;8984;49.268;12.302;2023-02-10T09:11:46;65.77;;;37.73;;
17727;SDS011;8984;49.268;12.302;2023-02-10T09:14:13;73.00;;;41.83;;
17727;SDS011;8984;49.268;12.302;2023-02-10T09:16:40;61.03;;;36.80;;
17727;SDS011;8984;49.268;12.302;2023-02-10T09:19:07;70.07;;;39.70;;
17727;SDS011;8984;49.268;12.302;2023-02-10T09:21:36;66.70;;;36.70;;
17727;SDS011;8984;49.268;12.302;2023-02-10T09:24:03;64.30;;;35.53;;
17727;SDS011;8984;49.268;12.302;2023-02-10T09:26:30;60.97;;;35.80;;
17727;SDS011;8984;49.268;12.302;2023-02-10T09:28:57;55.03;;;33.73;;
17727;SDS011;8984;49.268;12.302;2023-02-10T09:31:24;56.90;;;33.83;;
17727;SDS011;8984;49.268;12.302;2023-02-10T09:33:51;57.57;;;34.07;;
17727;SDS011;8984;49.268;12.302;2023-02-10T09:36:18;55.73;;;32.43;;
17727;SDS011;8984;49.268;12.302;2023-02-10T09:38:47;57.23;;;34.53;;
17727;SDS011;8984;49.268;12.302;2023-02-10T09:41:16;76.07;;;44.40;;
17727;SDS011;8984;49.268;12.302;2023-02-10T09:44:00;66.13;;;38.73;;
17727;SDS011;8984;49.268;12.302;2023-02-10T09:46:39;61.57;;;37.27;;
17727;SDS011;8984;49.268;12.302;2023-02-10T09:49:33;66.40;;;37.90;;
17727;SDS011;8984;49.268;12.302;2023-02-10T09:52:13;65.03;;;37.90;;
17727;SDS011;8984;49.268;12.302;2023-02-10T09:54:45;65.37;;;40.10;;
17727;SDS011;8984;49.268;12.302;2023-02-10T09:57:13;63.10;;;39.83;;
17727;SDS011;8984;49.268;12.302;2023-02-10T09:59:42;63.87;;;38.57;;
17727;SDS011;8984;49.268;12.302;2023-02-10T10:02:11;66.43;;;38.87;;
17727;SDS011;8984;49.268;12.302;2023-02-10T10:04:43;58.70;;;35.90;;
17727;SDS011;8984;49.268;12.302;2023-02-10T10:07:13;72.90;;;44.40;;
17727;SDS011;8984;49.268;12.302;2023-02-10T10:09:51;87.20;;;52.23;;
17727;SDS011;8984;49.268;12.302;2023-02-10T10:12:25;64.73;;;38.67;;
17727;SDS011;8984;49.268;12.302;2023-02-10T10:14:52;62.23;;;39.07;;
17727;SDS011;8984;49.268;12.302;2023-02-10T10:17:26;62.43;;;38.10;;
17727;SDS011;8984;49.268;12.302;2023-02-10T10:23:11;55.03;;;35.47;;
17727;SDS011;8984;49.268;12.302;2023-02-10T10:25:58;62.13;;;38.37;;
17727;SDS011;8984;49.268;12.302;2023-02-10T10:28:38;56.97;;;35.83;;
17727;SDS011;8984;49.268;12.302;2023-02-10T10:31:13;63.73;;;38.53;;
17727;SDS011;8984;49.268;12.302;2023-02-10T10:33:43;57.93;;;36.47;;
17727;SDS011;8984;49.268;12.302;2023-02-10T10:36:15;58.90;;;35.40;;
17727;SDS011;8984;49.268;12.302;2023-02-10T10:38:46;59.10;;;37.63;;
17727;SDS011;8984;49.268;12.302;2023-02-10T10:41:17;57.43;;;36.37;;
17727;SDS011;8984;49.268;12.302;2023-02-10T10:43:46;51.63;;;33.40;;
17727;SDS011;8984;49.268;12.302;2023-02-10T10:46:17;59.47;;;36.33;;
17727;SDS011;8984;49.268;12.302;2023-02-10T10:48:47;79.93;;;49.50;;
17727;SDS011;8984;49.268;12.302;2023-02-10T10:51:14;58.23;;;38.30;;
17727;SDS011;8984;49.268;12.302;2023-02-10T10:53:42;54.47;;;34.80;;
17727;SDS011;8984;49.268;12.302;2023-02-10T10:56:16;53.03;;;34.07;;
17727;SDS011;8984;49.268;12.302;2023-02-10T10:58:49;55.50;;;35.30;;
17727;SDS011;8984;49.268;12.302;2023-02-10T11:01:17;62.73;;;37.03;;
17727;SDS011;8984;49.268;12.302;2023-02-10T11:04:03;54.70;;;35.47;;
17727;SDS011;8984;49.268;12.302;2023-02-10T11:06:32;53.40;;;34.43;;
17727;SDS011;8984;49.268;12.302;2023-02-10T11:09:01;49.80;;;34.77;;
17727;SDS011;8984;49.268;12.302;2023-02-10T11:11:32;52.13;;;34.83;;
17727;SDS011;8984;49.268;12.302;2023-02-10T11:14:03;52.53;;;34.87;;
17727;SDS011;8984;49.268;12.302;2023-02-10T11:16:40;51.70;;;35.40;;
17727;SDS011;8984;49.268;12.302;2023-02-10T11:19:15;57.73;;;36.67;;
17727;SDS011;8984;49.268;12.302;2023-02-10T11:21:45;52.07;;;35.27;;
17727;SDS011;8984;49.268;12.302;2023-02-10T11:24:15;50.60;;;32.60;;
17727;SDS011;8984;49.268;12.302;2023-02-10T11:26:55;53.33;;;34.27;;
17727;SDS011;8984;49.268;12.302;2023-02-10T11:29:24;50.90;;;34.00;;
17727;SDS011;8984;49.268;12.302;2023-02-10T11:31:51;52.97;;;33.43;;
17727;SDS011;8984;49.268;12.302;2023-02-10T11:34:20;55.97;;;34.37;;
17727;SDS011;8984;49.268;12.302;2023-02-10T11:36:50;56.00;;;34.03;;
17727;SDS011;8984;49.268;12.302;2023-02-10T11:39:19;52.03;;;34.97;;
17727;SDS011;8984;49.268;12.302;2023-02-10T11:41:49;46.60;;;31.83;;
17727;SDS011;8984;49.268;12.302;2023-02-10T11:44:23;46.70;;;32.33;;
17727;SDS011;8984;49.268;12.302;2023-02-10T11:46:56;50.23;;;33.80;;
17727;SDS011;8984;49.268;12.302;2023-02-10T11:49:24;51.50;;;33.43;;
17727;SDS011;8984;49.268;12.302;2023-02-10T11:51:55;52.03;;;35.03;;
17727;SDS011;8984;49.268;12.302;2023-02-10T11:54:24;54.73;;;34.50;;
17727;SDS011;8984;49.268;12.302;2023-02-10T11:56:53;50.13;;;33.00;;
17727;SDS011;8984;49.268;12.302;2023-02-10T11:59:47;50.50;;;34.83;;
17727;SDS011;8984;49.268;12.302;2023-02-10T12:02:23;49.90;;;33.47;;
17727;SDS011;8984;49.268;12.302;2023-02-10T12:05:11;47.10;;;32.83;;
17727;SDS011;8984;49.268;12.302;2023-02-10T12:07:47;59.00;;;35.60;;
17727;SDS011;8984;49.268;12.302;2023-02-10T12:10:26;44.37;;;31.23;;
17727;SDS011;8984;49.268;12.302;2023-02-10T12:13:00;46.63;;;31.67;;
17727;SDS011;8984;49.268;12.302;2023-02-10T12:15:36;53.00;;;32.57;;
17727;SDS011;8984;49.268;12.302;2023-02-10T12:18:12;46.23;;;30.60;;
17727;SDS011;8984;49.268;12.302;2023-02-10T12:20:51;50.07;;;32.57;;
17727;SDS011;8984;49.268;12.302;2023-02-10T12:26:18;45.53;;;32.07;;
17727;SDS011;8984;49.268;12.302;2023-02-10T12:28:53;44.27;;;29.43;;
17727;SDS011;8984;49.268;12.302;2023-02-10T12:31:34;45.37;;;30.40;;
17727;SDS011;8984;49.268;12.302;2023-02-10T12:37:16;46.80;;;31.03;;
17727;SDS011;8984;49.268;12.302;2023-02-10T12:39:55;48.77;;;32.53;;
17727;SDS011;8984;49.268;12.302;2023-02-10T12:42:34;43.20;;;30.70;;
17727;SDS011;8984;49.268;12.302;2023-02-10T12:45:12;46.03;;;30.70;;
17727;SDS011;8984;49.268;12.302;2023-02-10T12:47:51;45.00;;;31.10;;
17727;SDS011;8984;49.268;12.302;2023-02-10T12:50:36;48.03;;;33.60;;
17727;SDS011;8984;49.268;12.302;2023-02-10T12:53:14;45.57;;;32.53;;
17727;SDS011;8984;49.268;12.302;2023-02-10T12:55:48;46.73;;;31.10;;
17727;SDS011;8984;49.268;12.302;2023-02-10T12:58:20;47.07;;;32.63;;
17727;SDS011;8984;49.268;12.302;2023-02-10T13:00:52;44.83;;;30.80;;
17727;SDS011;8984;49.268;12.302;2023-02-10T13:03:25;44.50;;;29.87;;
17727;SDS011;8984;49.268;12.302;2023-02-10T13:05:57;46.70;;;31.60;;
17727;SDS011;8984;49.268;12.302;2023-02-10T13:08:32;42.50;;;30.47;;
17727;SDS011;8984;49.268;12.302;2023-02-10T13:11:05;44.60;;;29.70;;
17727;SDS011;8984;49.268;12.302;2023-02-10T13:13:37;41.57;;;29.10;;
17727;SDS011;8984;49.268;12.302;2023-02-10T13:16:09;41.93;;;29.30;;
17727;SDS011;8984;49.268;12.302;2023-02-10T13:18:43;41.80;;;29.47;;
17727;SDS011;8984;49.268;12.302;2023-02-10T13:21:16;44.63;;;29.40;;
17727;SDS011;8984;49.268;12.302;2023-02-10T13:23:52;44.43;;;29.37;;
17727;SDS011;8984;49.268;12.302;2023-02-10T13:26:37;41.30;;;28.77;;
17727;SDS011;8984;49.268;12.302;2023-02-10T13:29:17;43.83;;;30.00;;
17727;SDS011;8984;49.268;12.302;2023-02-10T13:31:56;42.50;;;28.87;;
17727;SDS011;8984;49.268;12.302;2023-02-10T13:34:53;50.17;;;29.37;;
17727;SDS011;8984;49.268;12.302;2023-02-10T13:37:22;45.27;;;31.43;;
17727;SDS011;8984;49.268;12.302;2023-02-10T13:39:57;39.70;;;27.37;;
17727;SDS011;8984;49.268;12.302;2023-02-10T13:42:27;39.07;;;27.90;;
17727;SDS011;8984;49.268;12.302;2023-02-10T13:44:57;40.60;;;27.67;;
17727;SDS011;8984;49.268;12.302;2023-02-10T13:47:28;40.27;;;27.23;;
17727;SDS011;8984;49.268;12.302;2023-02-10T13:50:00;39.40;;;27.03;;
17727;SDS011;8984;49.268;12.302;2023-02-10T13:52:30;36.77;;;25.17;;
17727;SDS011;8984;49.268;12.302;2023-02-10T13:55:00;34.73;;;25.33;;
17727;SDS011;8984;49.268;12.302;2023-02-10T13:57:31;77.63;;;49.13;;
17727;SDS011;8984;49.268;12.302;2023-02-10T14:00:14;41.43;;;27.77;;
17727;SDS011;8984;49.268;12.302;2023-02-10T14:02:43;42.87;;;27.07;;
17727;SDS011;8984;49.268;12.302;2023-02-10T14:05:26;37.77;;;26.90;;
17727;SDS011;8984;49.268;12.302;2023-02-10T14:07:55;39.17;;;26.37;;
17727;SDS011;8984;49.268;12.302;2023-02-10T14:10:30;34.87;;;24.67;;
17727;SDS011;8984;49.268;12.302;2023-02-10T14:12:59;35.80;;;24.50;;
17727;SDS011;8984;49.268;12.302;2023-02-10T14:15:30;40.77;;;27.27;;
17727;SDS011;8984;49.268;12.302;2023-02-10T14:17:59;35.03;;;24.33;;
17727;SDS011;8984;49.268;12.302;2023-02-10T14:20:33;37.17;;;25.87;;
17727;SDS011;8984;49.268;12.302;2023-02-10T14:23:02;34.20;;;23.90;;
17727;SDS011;8984;49.268;12.302;2023-02-10T14:25:32;36.97;;;26.13;;
17727;SDS011;8984;49.268;12.302;2023-02-10T14:28:03;36.63;;;25.67;;
17727;SDS011;8984;49.268;12.302;2023-02-10T14:30:34;41.23;;;25.40;;
17727;SDS011;8984;49.268;12.302;2023-02-10T14:33:06;39.37;;;27.13;;
17727;SDS011;8984;49.268;12.302;2023-02-10T14:35:49;39.63;;;23.70;;
17727;SDS011;8984;49.268;12.302;2023-02-10T14:38:19;35.03;;;24.57;;
17727;SDS011;8984;49.268;12.302;2023-02-10T14:40:48;37.97;;;26.57;;
17727;SDS011;8984;49.268;12.302;2023-02-10T14:43:16;36.80;;;25.37;;
17727;SDS011;8984;49.268;12.302;2023-02-10T14:45:48;35.83;;;25.30;;
17727;SDS011;8984;49.268;12.302;2023-02-10T14:48:15;39.53;;;25.67;;
17727;SDS011;8984;49.268;12.302;2023-02-10T14:50:57;39.43;;;25.73;;
17727;SDS011;8984;49.268;12.302;2023-02-10T14:53:29;38.47;;;27.30;;
17727;SDS011;8984;49.268;12.302;2023-02-10T14:55:56;39.40;;;27.20;;
17727;SDS011;8984;49.268;12.302;2023-02-10T14:58:25;36.33;;;25.60;;
17727;SDS011;8984;49.268;12.302;2023-02-10T15:00:54;39.93;;;28.57;;
17727;SDS011;8984;49.268;12.302;2023-02-10T15:03:23;39.37;;;26.30;;
17727;SDS011;8984;49.268;12.302;2023-02-10T15:05:51;39.80;;;26.13;;